createdAt,value
2022-09-16T00:00:47.002Z,97553.75
2022-09-16T00:03:34.912Z,97554.16
2022-09-16T00:06:01.956Z,97553.56
2022-09-16T00:08:28.755Z,97543.06
2022-09-16T00:11:00.426Z,97548.63
2022-09-16T00:13:28.043Z,97544.31
2022-09-16T00:15:55.125Z,97546.50
2022-09-16T00:18:22.087Z,97538.69
2022-09-16T00:20:51.618Z,97542.44
2022-09-16T00:23:19.981Z,97548.38
2022-09-16T00:25:53.991Z,97552.59
2022-09-16T00:28:22.285Z,97554.28
2022-09-16T00:30:49.952Z,97554.66
2022-09-16T00:33:18.273Z,97559.72
2022-09-16T00:35:45.482Z,97564.41
2022-09-16T00:38:12.654Z,97562.88
2022-09-16T00:40:47.634Z,97570.09
2022-09-16T00:43:16.811Z,97569.38
2022-09-16T00:45:55.704Z,97567.13
2022-09-16T00:48:25.665Z,97565.44
2022-09-16T00:50:57.337Z,97570.16
2022-09-16T01:01:38.447Z,97584.06
2022-09-16T01:04:22.590Z,97576.69
2022-09-16T01:06:49.995Z,97572.94
2022-09-16T01:09:19.597Z,97584.50
2022-09-16T01:11:46.411Z,97593.44
2022-09-16T01:14:33.132Z,97589.59
2022-09-16T01:17:15.414Z,97584.13
2022-09-16T01:20:19.545Z,97579.66
2022-09-16T01:23:06.813Z,97585.69
2022-09-16T01:25:42.757Z,97584.00
2022-09-16T01:28:09.705Z,97587.63
2022-09-16T01:30:55.075Z,97595.34
2022-09-16T01:33:37.374Z,97588.47
2022-09-16T01:36:20.586Z,97591.97
2022-09-16T01:39:12.241Z,97588.59
2022-09-16T01:42:07.208Z,97595.94
2022-09-16T01:44:58.053Z,97599.47
2022-09-16T01:47:36.406Z,97596.47
2022-09-16T01:50:37.356Z,97603.84
2022-09-16T01:53:12.964Z,97616.81
2022-09-16T01:55:51.074Z,97614.91
2022-09-16T01:58:22.873Z,97613.22
2022-09-16T02:00:53.986Z,97619.75
2022-09-16T02:03:42.765Z,97624.22
2022-09-16T02:06:13.917Z,97621.44
2022-09-16T02:08:58.135Z,97629.50
2022-09-16T02:11:25.649Z,97629.63
2022-09-16T02:14:05.171Z,97623.38
2022-09-16T02:16:36.296Z,97623.47
2022-09-16T02:19:10.970Z,97622.00
2022-09-16T02:21:45.465Z,97627.22
2022-09-16T02:24:17.729Z,97642.75
2022-09-16T02:26:51.627Z,97642.66
2022-09-16T02:29:23.396Z,97641.31
2022-09-16T02:31:55.752Z,97645.06
2022-09-16T02:34:38.581Z,97639.88
2022-09-16T02:37:11.987Z,97643.34
2022-09-16T02:39:44.576Z,97647.25
2022-09-16T02:42:11.850Z,97651.44
2022-09-16T02:44:38.881Z,97654.47
2022-09-16T02:47:26.726Z,97656.25
2022-09-16T02:50:12.343Z,97656.25
2022-09-16T02:53:01.810Z,97655.69
2022-09-16T02:55:47.562Z,97665.44
2022-09-16T02:58:14.518Z,97668.09
2022-09-16T03:00:48.241Z,97670.03
2022-09-16T03:03:15.634Z,97671.09
2022-09-16T03:06:04.105Z,97667.75
2022-09-16T03:08:30.933Z,97668.47
2022-09-16T03:11:16.459Z,97670.13
2022-09-16T03:14:02.072Z,97670.03
2022-09-16T03:16:47.691Z,97673.41
2022-09-16T03:19:25.411Z,97668.19
2022-09-16T03:22:03.622Z,97662.53
2022-09-16T03:24:53.528Z,97661.94
2022-09-16T03:27:30.191Z,97666.28
2022-09-16T03:30:06.185Z,97668.56
2022-09-16T03:32:56.553Z,97668.09
2022-09-16T03:35:50.494Z,97667.50
2022-09-16T03:38:19.921Z,97670.97
2022-09-16T03:40:48.456Z,97668.56
2022-09-16T03:43:17.276Z,97670.59
2022-09-16T03:45:44.837Z,97675.06
2022-09-16T03:48:13.304Z,97677.59
2022-09-16T03:50:40.365Z,97677.97
2022-09-16T03:53:08.317Z,97677.59
2022-09-16T03:55:35.079Z,97678.44
2022-09-16T03:58:01.903Z,97675.91
2022-09-16T04:00:29.284Z,97690.50
2022-09-16T04:02:56.686Z,97687.84
2022-09-16T04:05:23.615Z,97691.31
2022-09-16T04:07:50.810Z,97685.03
2022-09-16T04:10:18.091Z,97679.63
2022-09-16T04:12:45.080Z,97683.28
2022-09-16T04:15:12.663Z,97681.34
2022-09-16T04:17:39.543Z,97684.00
2022-09-16T04:20:08.189Z,97691.06
2022-09-16T04:22:35.270Z,97698.81
2022-09-16T04:25:02.188Z,97696.16
2022-09-16T04:27:28.992Z,97696.75
2022-09-16T04:29:56.426Z,97699.53
2022-09-16T04:32:23.493Z,97687.22
2022-09-16T04:34:50.260Z,97695.19
2022-09-16T04:37:17.278Z,97700.13
2022-09-16T04:39:44.053Z,97699.28
2022-09-16T04:42:12.451Z,97706.25
2022-09-16T04:44:39.890Z,97702.66
2022-09-16T04:47:06.858Z,97703.50
2022-09-16T04:49:33.629Z,97704.09
2022-09-16T04:52:00.650Z,97701.09
2022-09-16T04:54:27.964Z,97708.06
2022-09-16T04:56:54.793Z,97697.97
2022-09-16T04:59:21.976Z,97706.50
2022-09-16T05:01:48.865Z,97708.91
2022-09-16T05:04:15.769Z,97711.44
2022-09-16T05:06:42.818Z,97700.72
2022-09-16T05:09:11.463Z,97711.81
2022-09-16T05:11:40.124Z,97707.94
2022-09-16T05:14:10.410Z,97705.78
2022-09-16T05:16:37.206Z,97718.66
2022-09-16T05:19:05.095Z,97709.63
2022-09-16T05:21:35.982Z,97713.13
2022-09-16T05:24:05.283Z,97717.13
2022-09-16T05:26:32.844Z,97705.03
2022-09-16T05:29:05.015Z,97724.13
2022-09-16T05:31:35.774Z,97730.63
2022-09-16T05:34:11.682Z,97719.91
2022-09-16T05:36:39.238Z,97736.03
2022-09-16T05:39:24.083Z,97742.66
2022-09-16T05:41:57.124Z,97745.88
2022-09-16T05:44:25.215Z,97742.84
2022-09-16T05:46:52.532Z,97734.22
2022-09-16T05:49:20.974Z,97744.88
2022-09-16T05:51:49.473Z,97742.91
2022-09-16T05:54:18.729Z,97746.81
2022-09-16T05:56:46.358Z,97742.88
2022-09-16T05:59:14.563Z,97739.69
2022-09-16T06:01:41.821Z,97739.53
2022-09-16T06:04:11.668Z,97741.56
2022-09-16T06:06:41.437Z,97750.66
2022-09-16T06:09:14.244Z,97748.78
2022-09-16T06:11:47.453Z,97735.41
2022-09-16T06:14:15.850Z,97740.31
2022-09-16T06:16:43.559Z,97731.03
2022-09-16T06:19:13.714Z,97743.59
2022-09-16T06:21:41.933Z,97744.63
2022-09-16T06:24:10.142Z,97746.22
2022-09-16T06:26:42.307Z,97743.56
2022-09-16T06:29:10.210Z,97752.28
2022-09-16T06:31:38.666Z,97746.94
2022-09-16T06:34:06.562Z,97747.06
2022-09-16T06:36:38.559Z,97738.53
2022-09-16T06:39:07.544Z,97740.09
2022-09-16T06:41:34.694Z,97757.34
2022-09-16T06:44:01.747Z,97760.31
2022-09-16T06:46:29.765Z,97754.22
2022-09-16T06:49:00.407Z,97757.41
2022-09-16T06:51:31.748Z,97767.16
2022-09-16T06:54:07.495Z,97763.03
2022-09-16T06:56:37.743Z,97771.91
2022-09-16T06:59:05.391Z,97766.19
2022-09-16T07:01:33.414Z,97775.09
2022-09-16T07:04:05.513Z,97777.16
2022-09-16T07:06:58.212Z,97776.13
2022-09-16T07:09:20.323Z,97775.56
2022-09-16T07:11:47.106Z,97786.25
2022-09-16T07:14:13.873Z,97774.47
2022-09-16T07:16:40.884Z,97772.81
2022-09-16T07:19:07.737Z,97777.00
2022-09-16T07:21:34.709Z,97779.75
2022-09-16T07:24:02.714Z,97782.81
2022-09-16T07:26:35.388Z,97786.53
2022-09-16T07:29:05.617Z,97795.38
2022-09-16T07:31:37.029Z,97790.03
2022-09-16T07:34:06.718Z,97791.00
2022-09-16T07:36:45.750Z,97788.13
2022-09-16T07:39:14.030Z,97787.06
2022-09-16T07:41:43.346Z,97794.94
2022-09-16T07:44:12.891Z,97787.97
2022-09-16T07:46:39.912Z,97789.25
2022-09-16T07:49:09.163Z,97785.56
2022-09-16T07:51:36.336Z,97787.03
2022-09-16T07:54:07.208Z,97766.81
2022-09-16T07:56:36.837Z,97792.00
2022-09-16T07:59:06.752Z,97780.81
2022-09-16T08:01:35.305Z,97778.44
2022-09-16T08:04:04.526Z,97788.16
2022-09-16T08:06:32.532Z,97773.06
2022-09-16T08:09:10.524Z,97777.41
2022-09-16T08:11:48.109Z,97767.19
2022-09-16T08:14:15.097Z,97769.31
2022-09-16T08:16:41.954Z,97766.94
2022-09-16T08:19:09.552Z,97762.50
2022-09-16T08:21:36.587Z,97768.63
2022-09-16T08:24:03.436Z,97765.94
2022-09-16T08:26:31.023Z,97768.06
2022-09-16T08:29:08.424Z,97758.31
2022-09-16T08:31:36.990Z,97762.03
2022-09-16T08:34:04.523Z,97776.44
2022-09-16T08:36:33.333Z,97766.31
2022-09-16T08:39:00.577Z,97771.50
2022-09-16T08:41:52.637Z,97762.56
2022-09-16T08:44:40.798Z,97768.56
2022-09-16T08:47:42.688Z,97769.56
2022-09-16T08:50:23.547Z,97763.63
2022-09-16T08:52:53.394Z,97767.53
2022-09-16T08:55:32.167Z,97761.00
2022-09-16T08:58:14.784Z,97764.22
2022-09-16T09:00:44.357Z,97764.75
2022-09-16T09:03:29.989Z,97776.56
2022-09-16T09:05:59.088Z,97776.47
2022-09-16T09:08:41.302Z,97775.81
2022-09-16T09:11:26.480Z,97778.06
2022-09-16T09:14:00.832Z,97776.59
2022-09-16T09:16:59.552Z,97772.91
2022-09-16T09:19:45.326Z,97770.41
2022-09-16T09:22:37.467Z,97780.41
2022-09-16T09:25:31.376Z,97771.31
2022-09-16T09:28:24.607Z,97768.69
2022-09-16T09:31:11.180Z,97769.47
2022-09-16T09:33:46.544Z,97763.16
2022-09-16T09:36:26.222Z,97762.53
2022-09-16T09:39:03.790Z,97757.81
2022-09-16T09:41:45.840Z,97766.47
2022-09-16T09:44:40.466Z,97763.13
2022-09-16T09:47:48.398Z,97762.06
2022-09-16T09:50:30.357Z,97771.19
2022-09-16T09:53:05.893Z,97775.41
2022-09-16T09:55:34.596Z,97779.56
2022-09-16T09:58:05.262Z,97780.91
2022-09-16T10:00:32.853Z,97774.50
2022-09-16T10:03:17.244Z,97779.41
2022-09-16T10:05:46.061Z,97777.94
2022-09-16T10:08:27.142Z,97771.53
2022-09-16T10:11:02.381Z,97776.78
2022-09-16T10:13:30.716Z,97774.31
2022-09-16T10:16:21.411Z,97762.34
2022-09-16T10:19:37.439Z,97769.75
2022-09-16T10:22:10.311Z,97761.38
2022-09-16T10:24:40.530Z,97768.03
2022-09-16T10:27:34.180Z,97764.88
2022-09-16T10:30:16.686Z,97766.31
2022-09-16T10:32:55.615Z,97758.59
2022-09-16T10:35:27.061Z,97751.72
2022-09-16T10:37:57.684Z,97754.31
2022-09-16T10:40:26.060Z,97752.28
2022-09-16T10:42:54.669Z,97756.38
2022-09-16T10:45:29.209Z,97756.91
2022-09-16T10:48:04.818Z,97758.00
2022-09-16T10:50:34.348Z,97758.41
2022-09-16T10:53:01.152Z,97747.75
2022-09-16T10:55:30.639Z,97744.94
2022-09-16T10:58:27.119Z,97749.94
2022-09-16T11:01:18.359Z,97748.13
2022-09-16T11:04:09.457Z,97747.28
2022-09-16T11:06:45.247Z,97745.75
2022-09-16T11:09:24.310Z,97745.41
2022-09-16T11:12:11.025Z,97748.41
2022-09-16T11:14:57.038Z,97760.16
2022-09-16T11:17:48.750Z,97751.59
2022-09-16T11:20:28.179Z,97754.44
2022-09-16T11:22:57.919Z,97738.63
2022-09-16T11:25:43.111Z,97747.81
2022-09-16T11:28:32.044Z,97751.34
2022-09-16T11:31:17.900Z,97748.47
2022-09-16T11:34:22.290Z,97743.31
2022-09-16T11:37:10.684Z,97734.13
2022-09-16T11:40:02.464Z,97737.47
2022-09-16T11:42:55.974Z,97737.34
2022-09-16T11:45:41.821Z,97737.81
2022-09-16T11:48:08.759Z,97730.81
2022-09-16T11:50:54.202Z,97736.53
2022-09-16T11:53:23.641Z,97738.38
2022-09-16T11:55:58.584Z,97724.66
2022-09-16T11:58:46.326Z,97729.50
2022-09-16T12:01:26.224Z,97732.06
2022-09-16T12:04:25.856Z,97739.38
2022-09-16T12:07:06.466Z,97737.91
2022-09-16T12:09:55.799Z,97736.78
2022-09-16T12:12:28.900Z,97732.78
2022-09-16T12:15:19.197Z,97725.75
2022-09-16T12:18:13.166Z,97729.53
2022-09-16T12:20:49.290Z,97725.38
2022-09-16T12:23:20.525Z,97727.59
2022-09-16T12:26:18.466Z,97719.97
2022-09-16T12:28:59.491Z,97727.19
2022-09-16T12:31:34.380Z,97729.31
2022-09-16T12:34:10.229Z,97725.13
2022-09-16T12:36:43.244Z,97725.63
2022-09-16T12:39:12.665Z,97718.25
2022-09-16T12:42:04.014Z,97714.56
2022-09-16T12:44:57.189Z,97718.41
2022-09-16T12:47:39.046Z,97712.56
2022-09-16T12:50:37.560Z,97692.31
2022-09-16T12:53:10.538Z,97705.50
2022-09-16T12:56:02.856Z,97699.56
2022-09-16T12:58:39.335Z,97703.69
2022-09-16T13:01:14.442Z,97693.06
2022-09-16T13:03:47.261Z,97690.66
2022-09-16T13:06:25.675Z,97700.88
2022-09-16T13:08:53.893Z,97688.44
2022-09-16T13:12:23.642Z,97686.50
2022-09-16T13:14:23.543Z,97684.31
2022-09-16T13:16:58.533Z,97690.16
2022-09-16T13:19:34.169Z,97682.03
2022-09-16T13:22:13.116Z,97684.09
2022-09-16T13:24:43.025Z,97682.69
2022-09-16T13:27:30.805Z,97684.84
2022-09-16T13:30:12.797Z,97675.28
2022-09-16T13:32:45.958Z,97674.63
2022-09-16T13:35:23.500Z,97667.84
2022-09-16T13:37:54.524Z,97669.22
2022-09-16T13:40:24.125Z,97672.41
2022-09-16T13:42:51.507Z,97662.84
2022-09-16T13:45:33.442Z,97664.28
2022-09-16T13:48:10.820Z,97668.09
2022-09-16T13:50:40.059Z,97665.94
2022-09-16T13:53:18.739Z,97665.09
2022-09-16T13:55:48.618Z,97667.88
2022-09-16T13:58:35.546Z,97672.84
2022-09-16T14:01:05.919Z,97670.94
2022-09-16T14:04:01.964Z,97659.06
2022-09-16T14:06:39.032Z,97663.19
2022-09-16T14:09:14.034Z,97660.28
2022-09-16T14:11:54.839Z,97662.03
2022-09-16T14:17:18.227Z,97658.69
2022-09-16T14:19:46.935Z,97667.34
2022-09-16T14:22:17.080Z,97663.63
2022-09-16T14:24:46.047Z,97670.94
2022-09-16T14:27:27.040Z,97671.31
2022-09-16T14:30:03.858Z,97672.81
2022-09-16T14:32:33.216Z,97677.06
2022-09-16T14:35:02.645Z,97675.34
2022-09-16T14:37:31.927Z,97675.34
2022-09-16T14:40:07.127Z,97669.47
2022-09-16T14:42:34.047Z,97664.38
2022-09-16T14:45:01.073Z,97670.50
2022-09-16T14:47:50.743Z,97664.63
2022-09-16T14:50:26.606Z,97665.41
2022-09-16T14:52:58.681Z,97662.88
2022-09-16T14:55:30.125Z,97667.34
2022-09-16T14:57:59.830Z,97663.94
2022-09-16T15:00:33.262Z,97671.94
2022-09-16T15:03:14.468Z,97663.72
2022-09-16T15:05:45.842Z,97661.63
2022-09-16T15:08:36.436Z,97657.72
2022-09-16T15:11:24.228Z,97652.19
2022-09-16T15:13:59.901Z,97644.63
2022-09-16T15:16:27.889Z,97640.06
2022-09-16T15:18:58.940Z,97640.88
2022-09-16T15:21:38.797Z,97639.59
2022-09-16T15:24:28.341Z,97640.22
2022-09-16T15:26:56.246Z,97637.16
2022-09-16T15:29:23.156Z,97630.91
2022-09-16T15:31:50.880Z,97633.22
2022-09-16T15:34:26.678Z,97627.97
2022-09-16T15:37:00.123Z,97625.78
2022-09-16T15:39:33.772Z,97637.25
2022-09-16T15:42:24.084Z,97633.28
2022-09-16T15:44:58.709Z,97627.91
2022-09-16T15:47:29.367Z,97624.91
2022-09-16T15:50:03.174Z,97627.94
2022-09-16T15:52:34.266Z,97629.81
2022-09-16T15:55:05.100Z,97630.38
2022-09-16T15:57:42.791Z,97628.75
2022-09-16T16:00:15.835Z,97617.13
2022-09-16T16:02:53.484Z,97623.47
2022-09-16T16:05:23.800Z,97617.19
2022-09-16T16:07:56.687Z,97627.59
2022-09-16T16:10:25.202Z,97632.53
2022-09-16T16:12:54.582Z,97631.66
2022-09-16T16:15:34.356Z,97638.94
2022-09-16T16:18:06.889Z,97642.06
2022-09-16T16:20:36.162Z,97639.56
2022-09-16T16:23:03.400Z,97630.16
2022-09-16T16:25:30.170Z,97633.09
2022-09-16T16:27:56.954Z,97634.53
2022-09-16T16:30:24.176Z,97646.44
2022-09-16T16:32:51.040Z,97648.69
2022-09-16T16:35:17.877Z,97641.97
2022-09-16T16:37:46.830Z,97651.38
2022-09-16T16:40:14.981Z,97657.38
2022-09-16T16:42:43.732Z,97646.59
2022-09-16T16:45:14.162Z,97659.63
2022-09-16T16:47:41.819Z,97664.69
2022-09-16T16:50:09.466Z,97671.66
2022-09-16T16:52:36.830Z,97664.06
2022-09-16T16:55:04.441Z,97661.84
2022-09-16T16:57:31.635Z,97664.03
2022-09-16T16:59:58.815Z,97669.66
2022-09-16T17:02:26.245Z,97662.91
2022-09-16T17:04:53.193Z,97673.13
2022-09-16T17:07:28.219Z,97669.34
2022-09-16T17:09:57.533Z,97659.94
2022-09-16T17:12:25.275Z,97649.16
2022-09-16T17:14:52.057Z,97662.84
2022-09-16T17:17:18.810Z,97655.41
2022-09-16T17:19:45.774Z,97662.38
2022-09-16T17:22:12.543Z,97659.16
2022-09-16T17:24:39.546Z,97672.97
2022-09-16T17:27:06.761Z,97667.63
2022-09-16T17:29:33.603Z,97677.66
2022-09-16T17:32:02.793Z,97686.31
2022-09-16T17:34:30.287Z,97678.41
2022-09-16T17:36:58.470Z,97670.22
2022-09-16T17:39:26.078Z,97674.63
2022-09-16T17:41:54.728Z,97670.97
2022-09-16T17:44:21.582Z,97674.97
2022-09-16T17:46:48.414Z,97673.78
2022-09-16T17:49:18.431Z,97670.09
2022-09-16T17:51:45.711Z,97653.00
2022-09-16T17:54:13.000Z,97656.56
2022-09-16T17:56:42.697Z,97662.25
2022-09-16T17:59:11.573Z,97678.09
2022-09-16T18:01:39.492Z,97678.81
2022-09-16T18:04:07.598Z,97679.47
2022-09-16T18:06:43.122Z,97692.88
2022-09-16T18:09:11.264Z,97696.75
2022-09-16T18:11:39.475Z,97688.06
2022-09-16T18:14:08.175Z,97688.56
2022-09-16T18:16:35.283Z,97673.03
2022-09-16T18:19:03.066Z,97658.06
2022-09-16T18:21:31.707Z,97664.47
2022-09-16T18:24:00.768Z,97670.97
2022-09-16T18:26:28.194Z,97665.19
2022-09-16T18:29:12.577Z,97664.47
2022-09-16T18:31:46.163Z,97670.75
2022-09-16T18:34:14.478Z,97672.53
2022-09-16T18:36:41.965Z,97676.16
2022-09-16T18:39:14.708Z,97681.34
2022-09-16T18:41:43.249Z,97676.41
2022-09-16T18:44:23.704Z,97680.25
2022-09-16T18:46:51.390Z,97683.50
2022-09-16T18:49:21.449Z,97676.38
2022-09-16T18:51:52.007Z,97679.53
2022-09-16T18:54:30.537Z,97682.38
2022-09-16T18:57:00.210Z,97692.25
2022-09-16T18:59:32.587Z,97695.03
2022-09-16T19:02:02.966Z,97686.13
2022-09-16T19:04:32.773Z,97678.53
2022-09-16T19:07:07.368Z,97676.88
2022-09-16T19:09:36.723Z,97680.34
2022-09-16T19:12:04.009Z,97683.25
2022-09-16T19:14:30.766Z,97679.63
2022-09-16T19:16:57.795Z,97670.84
2022-09-16T19:19:24.579Z,97681.78
2022-09-16T19:21:51.530Z,97676.59
2022-09-16T19:24:21.634Z,97679.84
2022-09-16T19:26:49.989Z,97689.69
2022-09-16T19:29:17.914Z,97685.72
2022-09-16T19:31:47.517Z,97687.03
2022-09-16T19:34:16.042Z,97687.38
2022-09-16T19:36:43.592Z,97696.25
2022-09-16T19:39:12.199Z,97679.88
2022-09-16T19:41:40.284Z,97677.59
2022-09-16T19:44:11.243Z,97682.25
2022-09-16T19:46:40.268Z,97678.28
2022-09-16T19:49:08.438Z,97675.31
2022-09-16T19:51:35.917Z,97675.78
2022-09-16T19:54:03.392Z,97681.41
2022-09-16T19:56:32.945Z,97674.78
2022-09-16T19:59:01.596Z,97677.88
2022-09-16T20:01:34.428Z,97668.72
2022-09-16T20:04:03.187Z,97678.88
2022-09-16T20:06:34.997Z,97676.91
2022-09-16T20:09:03.961Z,97678.09
2022-09-16T20:11:33.924Z,97676.13
2022-09-16T20:14:03.609Z,97676.31
2022-09-16T20:16:37.692Z,97673.41
2022-09-16T20:19:07.373Z,97671.84
2022-09-16T20:21:35.268Z,97669.94
2022-09-16T20:24:08.022Z,97677.88
2022-09-16T20:26:36.184Z,97672.59
2022-09-16T20:29:03.879Z,97673.53
2022-09-16T20:31:34.075Z,97684.00
2022-09-16T20:34:01.867Z,97678.72
2022-09-16T20:36:31.038Z,97679.53
2022-09-16T20:39:01.015Z,97675.84
2022-09-16T20:41:30.585Z,97683.66
2022-09-16T20:43:57.726Z,97683.91
2022-09-16T20:46:27.273Z,97683.34
2022-09-16T20:48:56.027Z,97688.53
2022-09-16T20:51:26.183Z,97692.84
2022-09-16T20:53:55.458Z,97693.47
2022-09-16T20:56:22.970Z,97694.22
2022-09-16T20:58:50.365Z,97689.66
2022-09-16T21:01:18.872Z,97687.44
2022-09-16T21:03:46.042Z,97686.13
2022-09-16T21:06:14.826Z,97696.69
2022-09-16T21:08:42.764Z,97692.47
2022-09-16T21:11:14.087Z,97693.22
2022-09-16T21:13:42.626Z,97694.06
2022-09-16T21:16:11.663Z,97697.34
2022-09-16T21:18:39.216Z,97705.59
2022-09-16T21:21:14.380Z,97696.25
2022-09-16T21:23:44.239Z,97693.19
2022-09-16T21:26:15.022Z,97689.56
2022-09-16T21:28:43.522Z,97695.59
2022-09-16T21:31:15.198Z,97697.41
2022-09-16T21:33:44.825Z,97707.97
2022-09-16T21:36:13.750Z,97706.41
2022-09-16T21:38:41.526Z,97706.16
2022-09-16T21:41:12.374Z,97703.41
2022-09-16T21:43:42.342Z,97702.34
2022-09-16T21:46:13.739Z,97701.50
2022-09-16T21:48:42.574Z,97699.47
2022-09-16T21:51:12.416Z,97708.03
2022-09-16T21:53:43.575Z,97706.00
2022-09-16T21:56:21.934Z,97714.56
2022-09-16T21:58:53.008Z,97713.63
2022-09-16T22:01:22.638Z,97723.22
2022-09-16T22:04:04.258Z,97714.94
2022-09-16T22:06:32.004Z,97721.59
2022-09-16T22:09:01.560Z,97723.91
2022-09-16T22:11:31.186Z,97717.53
2022-09-16T22:14:02.540Z,97716.50
2022-09-16T22:16:37.208Z,97708.47
2022-09-16T22:19:14.357Z,97708.56
2022-09-16T22:21:43.306Z,97709.41
2022-09-16T22:24:11.047Z,97711.22
2022-09-16T22:26:38.024Z,97711.31
2022-09-16T22:29:06.301Z,97704.31
2022-09-16T22:31:35.948Z,97707.19
2022-09-16T22:34:03.552Z,97698.00
2022-09-16T22:36:32.315Z,97699.91
2022-09-16T22:39:26.586Z,97699.53
2022-09-16T22:41:53.623Z,97704.22
2022-09-16T22:44:20.620Z,97704.31
2022-09-16T22:46:48.259Z,97697.22
2022-09-16T22:49:15.835Z,97688.13
2022-09-16T22:51:43.332Z,97683.56
2022-09-16T22:54:11.867Z,97691.25
2022-09-16T22:56:38.746Z,97699.09
2022-09-16T22:59:07.124Z,97689.47
2022-09-16T23:01:37.696Z,97694.53
2022-09-16T23:04:06.255Z,97684.59
2022-09-16T23:06:34.812Z,97691.44
2022-09-16T23:09:02.100Z,97682.78
2022-09-16T23:11:32.641Z,97682.97
2022-09-16T23:14:01.527Z,97681.94
2022-09-16T23:16:31.385Z,97681.06
2022-09-16T23:19:00.532Z,97679.28
2022-09-16T23:21:28.203Z,97684.69
2022-09-16T23:23:57.314Z,97685.75
2022-09-16T23:26:27.225Z,97688.41
2022-09-16T23:28:56.377Z,97688.41
2022-09-16T23:31:25.991Z,97691.78
2022-09-16T23:33:53.586Z,97684.78
2022-09-16T23:36:21.421Z,97692.72
2022-09-16T23:38:48.181Z,97681.41
2022-09-16T23:41:21.482Z,97681.66
2022-09-16T23:43:50.174Z,97683.31
2022-09-16T23:46:19.855Z,97692.22
2022-09-16T23:48:47.771Z,97678.03
2022-09-16T23:51:14.760Z,97682.38
2022-09-16T23:53:44.622Z,97684.19
2022-09-16T23:56:14.429Z,97686.84
2022-09-16T23:58:42.596Z,97694.88
